createdAt,value
2018-02-19T00:00:50.121Z,6.3
2018-02-19T00:01:52.828Z,6.6
2018-02-19T00:02:55.762Z,6.7
2018-02-19T00:03:58.487Z,6.6
2018-02-19T00:05:01.724Z,6.4
2018-02-19T00:06:04.365Z,6.3
2018-02-19T00:07:07.187Z,6.1
2018-02-19T00:08:09.876Z,6.3
2018-02-19T00:09:12.574Z,6.2
2018-02-19T00:10:15.179Z,6.5
2018-02-19T00:11:17.894Z,5.8
2018-02-19T00:12:20.516Z,6.2
2018-02-19T00:13:24.296Z,6.3
2018-02-19T00:14:27.116Z,6.3
2018-02-19T00:15:30.288Z,6.3
2018-02-19T00:16:32.826Z,6.1
2018-02-19T00:17:35.570Z,6
2018-02-19T00:18:38.153Z,6.1
2018-02-19T00:19:40.789Z,6.4
2018-02-19T00:20:43.392Z,6
2018-02-19T00:21:46.008Z,6.4
2018-02-19T00:22:48.641Z,6.3
2018-02-19T00:23:51.229Z,6.1
2018-02-19T00:24:54.369Z,6.1
2018-02-19T00:25:57.394Z,6.4
2018-02-19T00:27:05.585Z,6.5
2018-02-19T00:28:09.528Z,6.1
2018-02-19T00:29:12.304Z,6.2
2018-02-19T00:30:14.902Z,6
2018-02-19T00:31:17.605Z,5.7
2018-02-19T00:32:20.141Z,5.9
2018-02-19T00:33:22.666Z,5.8
2018-02-19T00:34:25.820Z,6
2018-02-19T00:35:28.446Z,5.9
2018-02-19T00:36:31.159Z,5.8
2018-02-19T00:37:33.775Z,5.4
2018-02-19T00:38:37.387Z,5.3
2018-02-19T00:39:40.138Z,5.1
2018-02-19T00:40:43.020Z,4.9
2018-02-19T00:41:45.562Z,4.9
2018-02-19T00:42:48.879Z,4.9
2018-02-19T00:43:55.133Z,4.8
2018-02-19T00:44:57.909Z,4.9
2018-02-19T00:46:01.284Z,4.7
2018-02-19T00:47:04.066Z,4.8
2018-02-19T00:48:06.858Z,4.9
2018-02-19T00:49:09.586Z,5
2018-02-19T00:50:17.391Z,4.9
2018-02-19T00:51:24.383Z,4.8
2018-02-19T00:52:27.118Z,4.6
2018-02-19T00:53:29.788Z,4.6
2018-02-19T00:54:32.419Z,4.7
2018-02-19T00:55:35.037Z,4.6
2018-02-19T00:56:39.230Z,4.8
2018-02-19T00:57:45.023Z,5.1
2018-02-19T00:58:47.741Z,5.1
2018-02-19T00:59:50.292Z,4.8
2018-02-19T01:00:52.854Z,4.6
2018-02-19T01:01:56.124Z,4.5
2018-02-19T01:03:02.111Z,4.6
2018-02-19T01:04:04.768Z,4.7
2018-02-19T01:05:07.384Z,4.7
2018-02-19T01:06:10.503Z,4.4
2018-02-19T01:07:13.144Z,4.7
2018-02-19T01:08:15.707Z,4.5
2018-02-19T01:09:18.522Z,4.6
2018-02-19T01:10:21.410Z,4.7
2018-02-19T01:11:23.973Z,4.5
2018-02-19T01:12:26.587Z,4.7
2018-02-19T01:13:29.260Z,4.7
2018-02-19T01:14:31.817Z,4.8
2018-02-19T01:15:34.440Z,4.8
2018-02-19T01:16:37.111Z,4.9
2018-02-19T01:17:39.626Z,4.6
2018-02-19T01:18:42.873Z,4.7
2018-02-19T01:19:45.540Z,4.8
2018-02-19T01:20:48.313Z,4.7
2018-02-19T01:21:50.881Z,4.8
2018-02-19T01:22:53.510Z,4.7
2018-02-19T01:23:56.296Z,4.9
2018-02-19T01:24:58.998Z,4.9
2018-02-19T01:26:01.698Z,4.8
2018-02-19T01:27:04.263Z,4.7
2018-02-19T01:28:08.214Z,5
2018-02-19T01:29:11.572Z,4.8
2018-02-19T01:30:15.678Z,4.9
2018-02-19T01:31:18.413Z,5.1
2018-02-19T01:32:20.998Z,4.8
2018-02-19T01:33:23.678Z,5
2018-02-19T01:34:26.337Z,5.2
2018-02-19T01:35:28.881Z,5.1
2018-02-19T01:36:31.415Z,4.8
2018-02-19T01:37:34.008Z,4.7
2018-02-19T01:38:36.640Z,4.7
2018-02-19T01:39:39.260Z,4.8
2018-02-19T01:40:42.015Z,4.8
2018-02-19T01:41:44.928Z,4.6
2018-02-19T01:42:47.501Z,5
2018-02-19T01:43:50.091Z,5
2018-02-19T01:44:52.979Z,4.9
2018-02-19T01:45:55.774Z,5
2018-02-19T01:46:59.019Z,4.9
2018-02-19T01:48:01.780Z,4.7
2018-02-19T01:49:04.366Z,4.9
2018-02-19T01:50:07.243Z,5.2
2018-02-19T01:51:09.841Z,5.4
2018-02-19T01:52:12.469Z,5.2
2018-02-19T01:53:14.994Z,4.8
2018-02-19T01:54:17.622Z,4.4
2018-02-19T01:55:20.266Z,4.4
2018-02-19T01:56:22.828Z,4.3
2018-02-19T01:57:25.581Z,4.6
2018-02-19T01:58:28.182Z,4.6
2018-02-19T01:59:30.778Z,4.6
2018-02-19T02:00:33.454Z,4.4
2018-02-19T02:01:36.173Z,4.4
2018-02-19T02:02:39.705Z,4.2
2018-02-19T02:03:42.337Z,4.3
2018-02-19T02:04:44.895Z,4.4
2018-02-19T02:05:47.500Z,4.2
2018-02-19T02:06:50.056Z,4.2
2018-02-19T02:07:52.651Z,4.1
2018-02-19T02:08:55.249Z,4.4
2018-02-19T02:09:58.418Z,4.4
2018-02-19T02:11:01.154Z,4.3
2018-02-19T02:12:03.726Z,4.2
2018-02-19T02:13:06.453Z,4.4
2018-02-19T02:14:09.046Z,4.9
2018-02-19T02:15:11.871Z,5
2018-02-19T02:16:14.503Z,4.8
2018-02-19T02:17:17.106Z,4.8
2018-02-19T02:18:19.721Z,4.8
2018-02-19T02:19:23.449Z,4.5
2018-02-19T02:20:26.117Z,4.1
2018-02-19T02:21:28.764Z,4
2018-02-19T02:22:31.341Z,4.1
2018-02-19T02:23:34.105Z,4.4
2018-02-19T02:24:36.821Z,4.6
2018-02-19T02:25:39.431Z,4.4
2018-02-19T02:26:42.592Z,4.3
2018-02-19T02:27:45.385Z,4.1
2018-02-19T02:28:49.210Z,4
2018-02-19T02:29:53.030Z,3.9
2018-02-19T02:30:55.934Z,4.4
2018-02-19T02:32:01.155Z,4.1
2018-02-19T02:33:03.812Z,4.3
2018-02-19T02:34:07.791Z,4.4
2018-02-19T02:35:10.780Z,4.4
2018-02-19T02:36:13.411Z,4.6
2018-02-19T02:37:20.888Z,4.4
2018-02-19T02:38:23.456Z,4.2
2018-02-19T02:39:26.126Z,4.4
2018-02-19T02:40:29.933Z,4.6
2018-02-19T02:41:33.202Z,4.9
2018-02-19T02:42:35.870Z,4.8
2018-02-19T02:43:39.135Z,4.6
2018-02-19T02:44:42.592Z,4.3
2018-02-19T02:45:45.136Z,4.2
2018-02-19T02:46:48.305Z,4
2018-02-19T02:47:50.976Z,4
2018-02-19T02:48:53.643Z,4
2018-02-19T02:49:56.291Z,4
2018-02-19T02:50:59.002Z,4
2018-02-19T02:52:01.743Z,4
2018-02-19T02:53:04.455Z,3.9
2018-02-19T02:54:07.118Z,3.8
2018-02-19T02:55:09.750Z,3.8
2018-02-19T02:56:12.614Z,3.9
2018-02-19T02:57:15.368Z,4
2018-02-19T02:58:18.175Z,3.9
2018-02-19T02:59:20.811Z,3.7
2018-02-19T03:00:24.378Z,3.8
2018-02-19T03:01:27.022Z,3.9
2018-02-19T03:02:30.353Z,3.9
2018-02-19T03:03:33.029Z,4
2018-02-19T03:04:35.619Z,4.1
2018-02-19T03:05:38.298Z,4
2018-02-19T03:06:40.941Z,3.9
2018-02-19T03:07:43.512Z,4
2018-02-19T03:08:46.063Z,3.7
2018-02-19T03:09:48.917Z,3.7
2018-02-19T03:10:51.518Z,3.8
2018-02-19T03:11:54.203Z,4
2018-02-19T03:12:56.829Z,4
2018-02-19T03:13:59.437Z,4
2018-02-19T03:15:04.359Z,4.1
2018-02-19T03:16:17.151Z,4
2018-02-19T03:17:19.865Z,3.6
2018-02-19T03:18:22.631Z,3.7
2018-02-19T03:19:25.853Z,3.7
2018-02-19T03:20:28.624Z,3.7
2018-02-19T03:21:31.400Z,3.8
2018-02-19T03:22:34.278Z,4
2018-02-19T03:23:37.662Z,4.1
2018-02-19T03:24:40.426Z,3.9
2018-02-19T03:25:43.842Z,4
2018-02-19T03:26:47.288Z,4.1
2018-02-19T03:27:50.020Z,4.2
2018-02-19T03:28:53.049Z,4.2
2018-02-19T03:29:55.917Z,4.2
2018-02-19T03:30:58.771Z,4.2
2018-02-19T03:32:02.835Z,4.2
2018-02-19T03:33:05.609Z,4.2
2018-02-19T03:34:09.062Z,4
2018-02-19T03:35:11.826Z,4
2018-02-19T03:36:14.755Z,3.8
2018-02-19T03:37:17.624Z,3.7
2018-02-19T03:38:20.283Z,3.6
2018-02-19T03:39:24.459Z,3.6
2018-02-19T03:40:27.880Z,3.6
2018-02-19T03:41:31.332Z,3.7
2018-02-19T03:42:34.999Z,3.5
2018-02-19T03:43:39.472Z,3.5
2018-02-19T03:44:42.144Z,3.5
2018-02-19T03:45:45.612Z,3.3
2018-02-19T03:46:50.593Z,3.6
2018-02-19T03:47:53.651Z,3.4
2018-02-19T03:48:56.525Z,3.4
2018-02-19T03:49:59.276Z,3.6
2018-02-19T03:51:02.706Z,3.4
2018-02-19T03:52:05.329Z,3.6
2018-02-19T03:53:08.016Z,3.6
2018-02-19T03:54:10.598Z,3.4
2018-02-19T03:55:13.796Z,3.7
2018-02-19T03:56:16.480Z,3.8
2018-02-19T03:57:19.147Z,4
2018-02-19T03:58:21.840Z,3.7
2018-02-19T03:59:24.529Z,3.8
2018-02-19T04:00:27.309Z,3.8
2018-02-19T04:01:29.914Z,3.7
2018-02-19T04:02:32.609Z,3.8
2018-02-19T04:03:35.313Z,4
2018-02-19T04:04:38.832Z,3.9
2018-02-19T04:05:41.475Z,3.7
2018-02-19T04:06:44.601Z,3.7
2018-02-19T04:07:47.357Z,3.4
2018-02-19T04:08:50.506Z,3.5
2018-02-19T04:09:53.451Z,3.4
2018-02-19T04:10:56.148Z,3.3
2018-02-19T04:11:58.918Z,3.4
2018-02-19T04:13:01.824Z,3.3
2018-02-19T04:14:05.144Z,3.2
2018-02-19T04:15:07.827Z,3.3
2018-02-19T04:16:10.471Z,3.3
2018-02-19T04:17:13.156Z,3.3
2018-02-19T04:18:15.834Z,3.2
2018-02-19T04:19:18.889Z,3.2
2018-02-19T04:20:21.564Z,3.2
2018-02-19T04:21:24.460Z,3.2
2018-02-19T04:22:27.185Z,3.1
2018-02-19T04:23:29.827Z,3.1
2018-02-19T04:24:32.464Z,3.1
2018-02-19T04:25:35.141Z,3.2
2018-02-19T04:26:37.812Z,3.2
2018-02-19T04:27:40.334Z,3.2
2018-02-19T04:28:43.059Z,3.2
2018-02-19T04:29:45.746Z,3.1
2018-02-19T04:30:48.373Z,3.2
2018-02-19T04:31:50.979Z,3.2
2018-02-19T04:32:53.581Z,3.1
2018-02-19T04:33:56.172Z,3.2
2018-02-19T04:34:59.559Z,3.1
2018-02-19T04:36:02.974Z,3.1
2018-02-19T04:37:05.626Z,3.1
2018-02-19T04:38:08.246Z,3.3
2018-02-19T04:39:10.908Z,3.3
2018-02-19T04:40:13.579Z,3.2
2018-02-19T04:41:17.371Z,3
2018-02-19T04:42:19.958Z,2.9
2018-02-19T04:43:22.672Z,2.8
2018-02-19T04:44:25.307Z,2.9
2018-02-19T04:45:28.064Z,2.8
2018-02-19T04:46:30.737Z,3
2018-02-19T04:47:33.456Z,3
2018-02-19T04:48:36.007Z,2.9
2018-02-19T04:49:39.177Z,3
2018-02-19T04:50:41.935Z,2.9
2018-02-19T04:51:45.170Z,3.1
2018-02-19T04:52:51.511Z,3.2
2018-02-19T04:53:54.146Z,3.2
2018-02-19T04:54:56.785Z,3.4
2018-02-19T04:55:59.391Z,3.3
2018-02-19T04:57:04.650Z,3.1
2018-02-19T04:58:08.193Z,3.2
2018-02-19T04:59:11.145Z,3.2
2018-02-19T05:00:14.568Z,3.2
2018-02-19T05:01:18.239Z,3.2
2018-02-19T05:02:20.951Z,3.4
2018-02-19T05:03:24.220Z,3.2
2018-02-19T05:04:26.882Z,3.3
2018-02-19T05:05:30.186Z,3.5
2018-02-19T05:06:34.087Z,3.3
2018-02-19T05:07:36.704Z,3.3
2018-02-19T05:08:39.384Z,3.3
2018-02-19T05:09:41.995Z,3.4
2018-02-19T05:10:44.570Z,3.5
2018-02-19T05:11:47.267Z,3.2
2018-02-19T05:12:49.855Z,3.5
2018-02-19T05:13:52.398Z,3.3
2018-02-19T05:14:55.619Z,3.5
2018-02-19T05:15:58.166Z,3.5
2018-02-19T05:17:00.981Z,3.2
2018-02-19T05:18:03.638Z,3.4
2018-02-19T05:19:06.166Z,3.3
2018-02-19T05:20:08.774Z,3.2
2018-02-19T05:21:11.357Z,3.2
2018-02-19T05:22:14.034Z,3.2
2018-02-19T05:23:16.596Z,3.3
2018-02-19T05:24:19.264Z,3.3
2018-02-19T05:25:21.862Z,3.2
2018-02-19T05:26:24.433Z,3.3
2018-02-19T05:27:27.094Z,3.3
2018-02-19T05:28:29.727Z,3.2
2018-02-19T05:29:32.308Z,3.3
2018-02-19T05:30:34.907Z,3.1
2018-02-19T05:31:37.501Z,3.1
2018-02-19T05:32:40.121Z,3.1
2018-02-19T05:33:42.705Z,3.1
2018-02-19T05:34:45.323Z,3.1
2018-02-19T05:35:47.936Z,3.1
2018-02-19T05:36:50.530Z,3.1
2018-02-19T05:37:53.318Z,3.2
2018-02-19T05:38:55.986Z,3.1
2018-02-19T05:39:58.639Z,3
2018-02-19T05:41:01.468Z,3.1
2018-02-19T05:42:04.193Z,3.2
2018-02-19T05:43:06.765Z,3.3
2018-02-19T05:44:09.555Z,3.2
2018-02-19T05:45:12.234Z,3.1
2018-02-19T05:46:14.877Z,3.1
2018-02-19T05:47:17.616Z,3
2018-02-19T05:48:20.332Z,3.2
2018-02-19T05:49:23.002Z,3.2
2018-02-19T05:50:25.697Z,3.4
2018-02-19T05:51:28.650Z,3.5
2018-02-19T05:52:32.648Z,3.5
2018-02-19T05:53:35.459Z,3.5
2018-02-19T05:54:38.485Z,3.3
2018-02-19T05:55:41.125Z,3.1
2018-02-19T05:56:43.776Z,3.2
2018-02-19T05:57:46.590Z,3.2
2018-02-19T05:58:49.443Z,3.2
2018-02-19T05:59:52.137Z,3.2
2018-02-19T06:00:54.861Z,3.2
2018-02-19T06:01:57.672Z,3.2
2018-02-19T06:03:00.346Z,3.5
2018-02-19T06:04:03.112Z,3.6
2018-02-19T06:05:05.853Z,3.5
2018-02-19T06:06:08.832Z,3.2
2018-02-19T06:07:11.526Z,3.4
2018-02-19T06:08:14.287Z,3.4
2018-02-19T06:09:17.031Z,3.3
2018-02-19T06:10:19.830Z,3.3
2018-02-19T06:11:22.599Z,3.3
2018-02-19T06:12:25.413Z,3.5
2018-02-19T06:13:28.207Z,3.4
2018-02-19T06:14:31.356Z,3.2
2018-02-19T06:15:38.958Z,3.4
2018-02-19T06:16:43.725Z,3.3
2018-02-19T06:17:46.860Z,3.3
2018-02-19T06:18:49.743Z,3.4
2018-02-19T06:19:52.461Z,3.3
2018-02-19T06:20:55.174Z,3.3
2018-02-19T06:21:57.965Z,3.5
2018-02-19T06:23:00.784Z,3.6
2018-02-19T06:24:03.607Z,3.7
2018-02-19T06:25:06.398Z,3.6
2018-02-19T06:26:12.667Z,3.5
2018-02-19T06:27:15.498Z,3.5
2018-02-19T06:28:18.262Z,3.4
2018-02-19T06:29:21.021Z,3.5
2018-02-19T06:30:23.838Z,3.5
2018-02-19T06:31:32.525Z,3.3
2018-02-19T06:32:35.324Z,3.5
2018-02-19T06:33:38.205Z,3.4
2018-02-19T06:34:41.043Z,3.5
2018-02-19T06:35:43.952Z,3.4
2018-02-19T06:36:46.985Z,3.3
2018-02-19T06:37:49.923Z,3.2
2018-02-19T06:38:52.703Z,3.5
2018-02-19T06:39:55.546Z,3.4
2018-02-19T06:40:58.526Z,3.3
2018-02-19T06:42:01.618Z,3.3
2018-02-19T06:43:04.343Z,3.4
2018-02-19T06:44:07.240Z,3.3
2018-02-19T06:45:15.650Z,3.3
2018-02-19T06:46:18.761Z,3.2
2018-02-19T06:47:21.895Z,3.2
2018-02-19T06:48:24.500Z,3.2
2018-02-19T06:49:30.691Z,3.3
2018-02-19T06:50:33.456Z,3.2
2018-02-19T06:51:36.204Z,3.1
2018-02-19T06:52:39.855Z,3.1
2018-02-19T06:53:42.673Z,3.2
2018-02-19T06:54:46.317Z,3.3
2018-02-19T06:55:49.214Z,3.1
2018-02-19T06:56:51.938Z,3.2
2018-02-19T06:57:54.595Z,3.1
2018-02-19T06:58:57.179Z,3.1
2018-02-19T07:00:00.212Z,3.2
2018-02-19T07:01:03.066Z,4.3
2018-02-19T07:02:05.685Z,5.6
2018-02-19T07:03:08.485Z,6.9
2018-02-19T07:04:11.122Z,7.4
2018-02-19T07:05:13.758Z,7.8
2018-02-19T07:06:16.306Z,7.9
2018-02-19T07:07:18.989Z,8.2
2018-02-19T07:08:21.597Z,8.6
2018-02-19T07:09:24.221Z,8.9
2018-02-19T07:10:26.742Z,8.8
2018-02-19T07:11:29.554Z,9
2018-02-19T07:12:32.401Z,9.2
2018-02-19T07:13:35.206Z,9.2
2018-02-19T07:14:37.987Z,9.3
2018-02-19T07:15:40.599Z,9.6
2018-02-19T07:16:43.188Z,9.7
2018-02-19T07:17:46.566Z,9.8
2018-02-19T07:17:59.147Z,9.5
2018-02-19T07:19:01.971Z,9.9
2018-02-19T07:20:05.197Z,10.2
2018-02-19T07:21:07.911Z,10.3
2018-02-19T07:22:10.652Z,10.3
2018-02-19T07:23:13.662Z,10.3
2018-02-19T07:24:16.286Z,10.4
2018-02-19T07:25:19.012Z,10.5
2018-02-19T07:26:21.608Z,10.6
2018-02-19T07:27:24.221Z,10.6
2018-02-19T07:28:26.944Z,10.6
2018-02-19T07:29:29.656Z,10.7
2018-02-19T07:30:32.255Z,10.7
2018-02-19T07:31:34.829Z,10.7
2018-02-19T07:32:37.454Z,10.9
2018-02-19T07:33:40.074Z,11.1
2018-02-19T07:34:42.630Z,11.1
2018-02-19T07:35:45.259Z,11.3
2018-02-19T07:36:48.008Z,11.3
2018-02-19T07:37:50.984Z,11.5
2018-02-19T07:38:53.954Z,11.7
2018-02-19T07:39:56.814Z,11.9
2018-02-19T07:40:59.783Z,12.1
2018-02-19T07:42:02.454Z,12.2
2018-02-19T07:43:09.925Z,12.3
2018-02-19T07:44:12.754Z,12.5
2018-02-19T07:45:15.415Z,12.5
2018-02-19T07:46:18.143Z,12.8
2018-02-19T07:47:20.836Z,13
2018-02-19T07:48:23.615Z,13.2
2018-02-19T07:49:26.376Z,13.2
2018-02-19T07:50:29.120Z,13.4
2018-02-19T07:51:32.752Z,13.4
2018-02-19T07:52:35.490Z,13.5
2018-02-19T07:53:38.257Z,13.6
2018-02-19T07:54:41.075Z,13.8
2018-02-19T07:55:43.691Z,13.8
2018-02-19T07:56:46.455Z,13.8
2018-02-19T07:57:56.338Z,13.8
2018-02-19T07:58:59.712Z,14.1
2018-02-19T08:00:04.586Z,14
2018-02-19T08:01:07.812Z,14.2
2018-02-19T08:02:10.943Z,14.3
2018-02-19T08:03:14.077Z,14.2
2018-02-19T08:04:16.697Z,14.4
2018-02-19T08:05:19.718Z,14.4
2018-02-19T08:06:22.643Z,14.5
2018-02-19T08:07:25.497Z,14.4
2018-02-19T08:08:28.458Z,14.5
2018-02-19T08:09:31.248Z,14.8
2018-02-19T08:10:34.034Z,14.9
2018-02-19T08:11:36.868Z,15
2018-02-19T08:12:39.678Z,15
2018-02-19T08:13:42.286Z,15
2018-02-19T08:14:45.088Z,15
2018-02-19T08:15:47.938Z,15.1
2018-02-19T08:16:50.889Z,15.1
2018-02-19T08:17:53.632Z,15.3
2018-02-19T08:18:56.361Z,15.3
2018-02-19T08:19:59.069Z,15.4
2018-02-19T08:21:02.568Z,15.1
2018-02-19T08:22:06.009Z,15.4
2018-02-19T08:23:09.229Z,15.3
2018-02-19T08:24:12.338Z,15.2
2018-02-19T08:25:15.424Z,15.4
2018-02-19T08:26:18.322Z,15.6
2018-02-19T08:27:21.165Z,15.6
2018-02-19T08:28:24.111Z,15.8
2018-02-19T08:29:26.966Z,15.8
2018-02-19T08:30:31.534Z,15.9
2018-02-19T08:31:34.366Z,15.7
2018-02-19T08:32:37.287Z,15.6
2018-02-19T08:33:40.256Z,15.6
2018-02-19T08:34:43.050Z,15.7
2018-02-19T08:35:45.948Z,15.8
2018-02-19T08:36:48.824Z,15.8
2018-02-19T08:37:51.450Z,15.7
2018-02-19T08:38:54.251Z,15.6
2018-02-19T08:39:57.064Z,15.9
2018-02-19T08:40:59.772Z,15.9
2018-02-19T08:42:02.529Z,15.8
2018-02-19T08:43:05.326Z,15.8
2018-02-19T08:44:08.332Z,15.6
2018-02-19T08:45:11.013Z,15.5
2018-02-19T08:46:13.837Z,15.4
2018-02-19T08:47:16.640Z,15.4
2018-02-19T08:48:19.782Z,15.4
2018-02-19T08:49:22.537Z,15.5
2018-02-19T08:50:25.620Z,15.4
2018-02-19T08:51:28.453Z,15.3
2018-02-19T08:52:31.245Z,15.3
2018-02-19T08:53:34.055Z,15.3
2018-02-19T08:54:36.898Z,15.2
2018-02-19T08:55:40.452Z,15.1
2018-02-19T08:56:43.289Z,15
2018-02-19T08:57:45.915Z,15
2018-02-19T08:58:48.850Z,15
2018-02-19T08:59:51.783Z,14.7
2018-02-19T09:00:54.584Z,14.7
2018-02-19T09:01:57.348Z,14.6
2018-02-19T09:03:00.373Z,14.7
2018-02-19T09:04:03.272Z,14.6
2018-02-19T09:05:06.158Z,14.6
2018-02-19T09:06:09.044Z,14.6
2018-02-19T09:07:11.950Z,14.6
2018-02-19T09:08:14.662Z,14.6
2018-02-19T09:09:17.462Z,14.6
2018-02-19T09:10:20.409Z,14.7
2018-02-19T09:11:23.251Z,14.7
2018-02-19T09:12:26.710Z,14.8
2018-02-19T09:13:29.616Z,14.9
2018-02-19T09:14:32.400Z,14.9
2018-02-19T09:15:35.263Z,14.9
2018-02-19T09:16:37.900Z,14.8
2018-02-19T09:17:40.560Z,14.7
2018-02-19T09:18:43.449Z,14.7
2018-02-19T09:19:46.096Z,14.8
2018-02-19T09:20:48.748Z,14.9
2018-02-19T09:21:51.376Z,14.9
2018-02-19T09:22:54.183Z,14.9
2018-02-19T09:23:57.163Z,14.9
2018-02-19T09:25:00.001Z,14.9
2018-02-19T09:26:03.009Z,14.9
2018-02-19T09:27:06.107Z,14.9
2018-02-19T09:28:11.108Z,14.8
2018-02-19T09:29:14.024Z,14.9
2018-02-19T09:30:16.963Z,14.9
2018-02-19T09:31:23.758Z,15
2018-02-19T09:32:26.398Z,15
2018-02-19T09:33:29.202Z,14.9
2018-02-19T09:34:32.305Z,15
2018-02-19T09:35:35.658Z,15
2018-02-19T09:36:40.114Z,14.8
2018-02-19T09:37:43.143Z,14.9
2018-02-19T09:38:45.825Z,15
2018-02-19T09:39:51.358Z,14.9
2018-02-19T09:40:54.413Z,14.9
2018-02-19T09:41:58.006Z,14.9
2018-02-19T09:43:01.175Z,15.1
2018-02-19T09:44:03.833Z,15.1
2018-02-19T09:45:06.661Z,15.2
2018-02-19T09:46:09.385Z,15.3
2018-02-19T09:47:12.183Z,15.4
2018-02-19T09:48:15.068Z,15.6
2018-02-19T09:49:17.786Z,15.6
2018-02-19T09:50:20.929Z,15.8
2018-02-19T09:51:23.674Z,15.9
2018-02-19T09:52:26.459Z,15.8
2018-02-19T09:53:29.332Z,16
2018-02-19T09:54:32.016Z,16.1
2018-02-19T09:55:35.229Z,16.2
2018-02-19T09:56:37.973Z,16.3
2018-02-19T09:57:40.830Z,16.5
2018-02-19T09:58:43.582Z,16.6
2018-02-19T09:59:46.276Z,16.8
2018-02-19T10:00:49.151Z,16.8
2018-02-19T10:01:51.882Z,16.9
2018-02-19T10:02:54.764Z,17
2018-02-19T10:03:57.484Z,17.1
2018-02-19T10:05:00.264Z,17
2018-02-19T10:06:03.618Z,17.1
2018-02-19T10:07:06.397Z,17.3
2018-02-19T10:08:09.510Z,17.5
2018-02-19T10:09:12.259Z,17.6
2018-02-19T10:10:14.894Z,17.6
2018-02-19T10:11:17.868Z,17.5
2018-02-19T10:12:32.294Z,17.5
2018-02-19T10:13:35.633Z,17.6
2018-02-19T10:14:38.601Z,17.6
2018-02-19T10:15:41.752Z,17.6
2018-02-19T10:16:44.824Z,17.6
2018-02-19T10:17:54.214Z,17.6
2018-02-19T10:18:57.408Z,17.7
2018-02-19T10:20:00.560Z,17.6
2018-02-19T10:21:03.830Z,17.7
2018-02-19T10:22:06.792Z,17.7
2018-02-19T10:23:09.949Z,17.5
2018-02-19T10:24:12.764Z,17.5
2018-02-19T10:25:15.776Z,17.5
2018-02-19T10:26:18.800Z,17.5
2018-02-19T10:27:22.812Z,17.5
2018-02-19T10:28:25.684Z,17.5
2018-02-19T10:29:34.998Z,17.5
2018-02-19T10:30:38.148Z,17.5
2018-02-19T10:31:41.158Z,17.6
2018-02-19T10:32:44.102Z,17.6
2018-02-19T10:33:46.887Z,17.6
2018-02-19T10:34:49.925Z,17.5
2018-02-19T10:35:52.525Z,17.4
2018-02-19T10:36:55.468Z,17.4
2018-02-19T10:37:58.239Z,17.3
2018-02-19T10:39:01.084Z,17.3
2018-02-19T10:40:03.882Z,17.2
2018-02-19T10:41:06.622Z,17.2
2018-02-19T10:42:09.577Z,17.2
2018-02-19T10:43:12.384Z,17.2
2018-02-19T10:44:15.372Z,17.2
2018-02-19T10:45:18.089Z,17.2
2018-02-19T10:46:27.015Z,17.2
2018-02-19T10:47:29.852Z,17.2
2018-02-19T10:48:32.749Z,17.2
2018-02-19T10:49:35.621Z,17.2
2018-02-19T10:50:38.314Z,17.1
2018-02-19T10:51:40.893Z,17.1
2018-02-19T10:52:43.705Z,17
2018-02-19T10:53:46.689Z,16.9
2018-02-19T10:54:49.675Z,16.8
2018-02-19T10:55:52.382Z,16.9
2018-02-19T10:56:54.996Z,17
2018-02-19T10:57:57.945Z,16.8
2018-02-19T10:59:07.079Z,17.1
2018-02-19T11:00:10.234Z,17
2018-02-19T11:01:13.279Z,17.1
2018-02-19T11:02:16.239Z,17.1
2018-02-19T11:03:19.152Z,17.2
2018-02-19T11:04:21.780Z,17.1
2018-02-19T11:05:24.528Z,17.1
2018-02-19T11:06:27.193Z,17.1
2018-02-19T11:07:29.925Z,17.1
2018-02-19T11:08:32.549Z,17.1
2018-02-19T11:09:35.289Z,17.1
2018-02-19T11:10:38.280Z,17.2
2018-02-19T11:11:41.145Z,17.2
2018-02-19T11:12:49.780Z,17.4
2018-02-19T11:13:52.841Z,17.4
2018-02-19T11:14:56.045Z,17.4
2018-02-19T11:16:00.206Z,17.4
2018-02-19T11:17:03.125Z,17.3
2018-02-19T11:18:05.912Z,17.3
2018-02-19T11:19:08.830Z,17.3
2018-02-19T11:20:11.953Z,17.2
2018-02-19T11:21:14.880Z,17.2
2018-02-19T11:22:17.705Z,17.3
2018-02-19T11:23:20.857Z,17.3
2018-02-19T11:24:24.580Z,17.3
2018-02-19T11:25:29.212Z,17.3
2018-02-19T11:26:32.663Z,17.3
2018-02-19T11:27:35.718Z,17.3
2018-02-19T11:28:38.587Z,17.4
2018-02-19T11:29:41.591Z,17.4
2018-02-19T11:30:45.110Z,17.3
2018-02-19T11:31:48.449Z,17.4
2018-02-19T11:32:51.418Z,17.5
2018-02-19T11:33:54.313Z,17.4
2018-02-19T11:34:57.271Z,17.4
2018-02-19T11:36:00.303Z,17.4
2018-02-19T11:37:03.675Z,17.5
2018-02-19T11:38:06.767Z,17.4
2018-02-19T11:39:10.018Z,17.5
2018-02-19T11:40:13.370Z,17.6
2018-02-19T11:41:16.191Z,17.6
2018-02-19T11:42:19.235Z,17.6
2018-02-19T11:43:22.193Z,17.6
2018-02-19T11:44:25.026Z,17.6
2018-02-19T11:45:27.971Z,17.6
2018-02-19T11:46:31.058Z,17.5
2018-02-19T11:47:33.974Z,17.6
2018-02-19T11:48:36.740Z,17.5
2018-02-19T11:49:39.701Z,17.5
2018-02-19T11:50:42.987Z,17.5
2018-02-19T11:51:46.586Z,17.5
2018-02-19T11:52:49.340Z,17.5
2018-02-19T11:53:52.209Z,17.5
2018-02-19T11:54:55.022Z,17.5
2018-02-19T11:55:57.793Z,17.5
2018-02-19T11:57:00.760Z,17.4
2018-02-19T11:58:03.765Z,17.6
2018-02-19T11:59:06.568Z,17.5
2018-02-19T12:00:10.719Z,17.6
2018-02-19T12:01:13.750Z,17.6
2018-02-19T12:02:17.333Z,17.6
2018-02-19T12:03:20.425Z,17.6
2018-02-19T12:04:23.364Z,17.6
2018-02-19T12:05:26.295Z,17.6
2018-02-19T12:06:29.250Z,17.6
2018-02-19T12:07:33.008Z,17.7
2018-02-19T12:08:35.993Z,17.7
2018-02-19T12:09:39.017Z,17.6
2018-02-19T12:10:42.791Z,17.7
2018-02-19T12:11:47.344Z,17.6
2018-02-19T12:12:50.667Z,17.7
2018-02-19T12:13:55.646Z,17.7
2018-02-19T12:15:09.117Z,17.7
2018-02-19T12:16:12.897Z,17.7
2018-02-19T12:17:16.053Z,17.7
2018-02-19T12:18:19.453Z,17.7
2018-02-19T12:19:23.247Z,17.5
2018-02-19T12:20:27.170Z,17.6
2018-02-19T12:21:31.752Z,17.7
2018-02-19T12:22:35.552Z,17.7
2018-02-19T12:23:39.415Z,17.7
2018-02-19T12:24:42.634Z,17.7
2018-02-19T12:25:45.803Z,17.7
2018-02-19T12:26:49.393Z,17.6
2018-02-19T12:27:53.004Z,17.7
2018-02-19T12:28:56.138Z,17.7
2018-02-19T12:29:58.872Z,17.9
2018-02-19T12:31:02.039Z,17.9
2018-02-19T12:32:11.893Z,17.7
2018-02-19T12:33:14.894Z,17.9
2018-02-19T12:34:17.723Z,17.8
2018-02-19T12:35:20.504Z,17.8
2018-02-19T12:36:23.562Z,17.7
2018-02-19T12:37:26.501Z,17.9
2018-02-19T12:38:29.292Z,17.8
2018-02-19T12:39:35.410Z,17.8
2018-02-19T12:40:40.658Z,17.8
2018-02-19T12:41:43.764Z,17.8
2018-02-19T12:42:46.456Z,17.8
2018-02-19T12:43:49.220Z,17.9
2018-02-19T12:44:51.988Z,17.9
2018-02-19T12:45:54.924Z,17.8
2018-02-19T12:47:03.678Z,17.8
2018-02-19T12:48:06.756Z,17.8
2018-02-19T12:49:09.577Z,17.8
2018-02-19T12:50:12.702Z,17.8
2018-02-19T12:51:16.607Z,17.8
2018-02-19T12:52:19.439Z,17.9
2018-02-19T12:53:22.498Z,17.8
2018-02-19T12:54:25.252Z,17.7
2018-02-19T12:55:28.156Z,17.9
2018-02-19T12:56:30.995Z,17.8
2018-02-19T12:57:33.816Z,17.8
2018-02-19T12:58:36.786Z,17.8
2018-02-19T12:59:39.658Z,17.8
2018-02-19T13:00:42.600Z,17.8
2018-02-19T13:01:45.411Z,17.8
2018-02-19T13:02:48.696Z,17.8
2018-02-19T13:03:51.816Z,17.8
2018-02-19T13:04:54.685Z,17.7
2018-02-19T13:05:57.305Z,17.7
2018-02-19T13:07:00.128Z,17.6
2018-02-19T13:08:03.253Z,17.7
2018-02-19T13:09:06.004Z,17.8
2018-02-19T13:10:08.983Z,17.8
2018-02-19T13:11:12.058Z,17.9
2018-02-19T13:12:15.420Z,17.9
2018-02-19T13:13:20.329Z,17.9
2018-02-19T13:14:23.352Z,17.8
2018-02-19T13:15:26.156Z,17.9
2018-02-19T13:16:28.886Z,17.8
2018-02-19T13:17:31.756Z,17.8
2018-02-19T13:18:34.677Z,17.7
2018-02-19T13:19:37.437Z,17.8
2018-02-19T13:20:40.360Z,17.8
2018-02-19T13:21:43.361Z,17.7
2018-02-19T13:22:46.408Z,17.8
2018-02-19T13:23:49.108Z,17.8
2018-02-19T13:24:52.167Z,17.9
2018-02-19T13:25:55.441Z,17.9
2018-02-19T13:26:58.410Z,17.9
2018-02-19T13:28:01.392Z,17.9
2018-02-19T13:29:08.311Z,17.8
2018-02-19T13:30:11.154Z,17.9
2018-02-19T13:31:14.112Z,17.9
2018-02-19T13:32:18.589Z,17.8
2018-02-19T13:33:21.469Z,17.8
2018-02-19T13:34:24.416Z,17.8
2018-02-19T13:35:28.112Z,17.8
2018-02-19T13:36:30.846Z,17.8
2018-02-19T13:37:33.970Z,17.8
2018-02-19T13:38:37.780Z,17.8
2018-02-19T13:39:40.553Z,17.8
2018-02-19T13:40:43.743Z,17.9
2018-02-19T13:41:46.682Z,17.9
2018-02-19T13:42:49.766Z,17.8
2018-02-19T13:43:52.796Z,17.8
2018-02-19T13:44:55.508Z,17.8
2018-02-19T13:45:58.337Z,17.8
2018-02-19T13:47:01.462Z,17.7
2018-02-19T13:48:04.388Z,17.8
2018-02-19T13:49:07.089Z,17.8
2018-02-19T13:50:10.932Z,17.6
2018-02-19T13:51:13.763Z,17.6
2018-02-19T13:52:16.713Z,17.7
2018-02-19T13:53:19.414Z,17.7
2018-02-19T13:54:22.380Z,17.7
2018-02-19T13:55:25.175Z,17.7
2018-02-19T13:56:28.385Z,17.8
2018-02-19T13:57:31.223Z,17.7
2018-02-19T13:58:34.311Z,17.7
2018-02-19T13:59:41.860Z,17.7
2018-02-19T14:00:45.109Z,17.6
2018-02-19T14:01:48.343Z,17.7
2018-02-19T14:02:51.446Z,17.7
2018-02-19T14:03:54.664Z,17.7
2018-02-19T14:04:57.510Z,17.7
2018-02-19T14:06:01.093Z,17.7
2018-02-19T14:07:04.624Z,17.7
2018-02-19T14:08:07.937Z,17.7
2018-02-19T14:09:11.392Z,17.7
2018-02-19T14:10:14.384Z,17.6
2018-02-19T14:11:17.461Z,17.6
2018-02-19T14:13:28.235Z,17.6
2018-02-19T14:14:31.894Z,17.5
2018-02-19T14:15:35.472Z,17.6
2018-02-19T14:16:38.809Z,17.6
2018-02-19T14:17:41.750Z,17.7
2018-02-19T14:18:44.864Z,17.7
2018-02-19T14:19:47.658Z,17.7